sensor_id;sensor_type;location;lat;lon;timestamp;P1;P2;P0
74426;PMS7003;62859;53.906;27.430;2023-07-30T00:00:54;7.7;6.3;5
74426;PMS7003;62859;53.906;27.430;2023-07-30T00:05:40;7;6.5;5.5
74426;PMS7003;62859;53.906;27.430;2023-07-30T00:10:16;6.3;5;4.3
74426;PMS7003;62859;53.906;27.430;2023-07-30T00:15:45;9.3;9.3;7
74426;PMS7003;62859;53.906;27.430;2023-07-30T00:20:54;6;5.7;4.3
74426;PMS7003;62859;53.906;27.430;2023-07-30T00:25:54;6.8;6;4.5
74426;PMS7003;62859;53.906;27.430;2023-07-30T00:30:54;5.3;5;4
74426;PMS7003;62859;53.906;27.430;2023-07-30T00:35:52;8.3;6.7;5.3
74426;PMS7003;62859;53.906;27.430;2023-07-30T00:40:12;7.3;6.7;5.3
74426;PMS7003;62859;53.906;27.430;2023-07-30T00:45:30;5;5;3.3
74426;PMS7003;62859;53.906;27.430;2023-07-30T00:50:44;5.3;5.3;3.7
74426;PMS7003;62859;53.906;27.430;2023-07-30T00:55:54;7.7;7.7;5.7
74426;PMS7003;62859;53.906;27.430;2023-07-30T01:00:38;6.3;4.7;3.7
74426;PMS7003;62859;53.906;27.430;2023-07-30T01:05:44;5.5;5.5;4.3
74426;PMS7003;62859;53.906;27.430;2023-07-30T01:10:52;7;5.7;4
74426;PMS7003;62859;53.906;27.430;2023-07-30T01:15:24;6.3;5.7;4
74426;PMS7003;62859;53.906;27.430;2023-07-30T01:20:12;7.3;6.7;5.7
74426;PMS7003;62859;53.906;27.430;2023-07-30T01:25:30;7.8;7;5.5
74426;PMS7003;62859;53.906;27.430;2023-07-30T01:30:54;6.7;5.7;4.3
74426;PMS7003;62859;53.906;27.430;2023-07-30T01:35:40;9.3;9;6.3
74426;PMS7003;62859;53.906;27.430;2023-07-30T01:40:30;7.8;7.3;6
74426;PMS7003;62859;53.906;27.430;2023-07-30T01:45:16;7.7;6.7;5.3
74426;PMS7003;62859;53.906;27.430;2023-07-30T01:50:20;6.7;6;4.7
74426;PMS7003;62859;53.906;27.430;2023-07-30T01:55:40;9.7;9.3;6.3
74426;PMS7003;62859;53.906;27.430;2023-07-30T02:00:30;9.5;8.5;6.5
74426;PMS7003;62859;53.906;27.430;2023-07-30T02:05:16;8.3;8;6.3
74426;PMS7003;62859;53.906;27.430;2023-07-30T02:10:28;9.3;9;6.7
74426;PMS7003;62859;53.906;27.430;2023-07-30T02:15:54;12.3;11;8.3
74426;PMS7003;62859;53.906;27.430;2023-07-30T02:20:12;11;10.8;7.5
74426;PMS7003;62859;53.906;27.430;2023-07-30T02:25:12;12;11.7;9
74426;PMS7003;62859;53.906;27.430;2023-07-30T02:30:52;14.7;13.3;9.3
74426;PMS7003;62859;53.906;27.430;2023-07-30T02:35:14;11.3;9.3;7.7
74426;PMS7003;62859;53.906;27.430;2023-07-30T02:40:24;12;9.5;7.8
74426;PMS7003;62859;53.906;27.430;2023-07-30T02:45:12;12.3;10;7.3
74426;PMS7003;62859;53.906;27.430;2023-07-30T02:50:38;8.7;8.7;6.3
74426;PMS7003;62859;53.906;27.430;2023-07-30T02:55:12;7.3;7;6
74426;PMS7003;62859;53.906;27.430;2023-07-30T03:00:44;9;8.3;6
74426;PMS7003;62859;53.906;27.430;2023-07-30T03:05:54;9;7.7;5.7
74426;PMS7003;62859;53.906;27.430;2023-07-30T03:10:30;7.7;7.3;5.3
74426;PMS7003;62859;53.906;27.430;2023-07-30T03:15:12;5.7;5.3;3.7
74426;PMS7003;62859;53.906;27.430;2023-07-30T03:20:57;7.3;6.5;5
74426;PMS7003;62859;53.906;27.430;2023-07-30T03:25:12;7.3;6;4.7
74426;PMS7003;62859;53.906;27.430;2023-07-30T03:30:12;5.7;5.7;5.3
74426;PMS7003;62859;53.906;27.430;2023-07-30T03:35:16;7;6.8;6.3
74426;PMS7003;62859;53.906;27.430;2023-07-30T03:40:44;7.7;6.3;4.7
74426;PMS7003;62859;53.906;27.430;2023-07-30T03:45:38;8.3;6.7;4.3
74426;PMS7003;62859;53.906;27.430;2023-07-30T03:50:54;7;5.7;4.3
74426;PMS7003;62859;53.906;27.430;2023-07-30T03:55:16;7.8;6.3;5
74426;PMS7003;62859;53.906;27.430;2023-07-30T04:00:12;7.7;6.7;5
74426;PMS7003;62859;53.906;27.430;2023-07-30T04:05:14;9;7.7;5.3
74426;PMS7003;62859;53.906;27.430;2023-07-30T04:10:52;8.3;7;5.3
74426;PMS7003;62859;53.906;27.430;2023-07-30T04:15:22;8.8;7;5
74426;PMS7003;62859;53.906;27.430;2023-07-30T04:20:26;5.7;5.3;4.3
74426;PMS7003;62859;53.906;27.430;2023-07-30T04:25:52;7.7;7;5.3
74426;PMS7003;62859;53.906;27.430;2023-07-30T04:30:42;6;5.7;4
74426;PMS7003;62859;53.906;27.430;2023-07-30T04:35:26;6.8;6.3;5
74426;PMS7003;62859;53.906;27.430;2023-07-30T04:40:42;8.3;7.7;5.3
74426;PMS7003;62859;53.906;27.430;2023-07-30T04:45:52;6.7;6.7;5.3
74426;PMS7003;62859;53.906;27.430;2023-07-30T04:50:52;5.3;5.3;4
74426;PMS7003;62859;53.906;27.430;2023-07-30T04:55:54;6.5;5.5;3.8
74426;PMS7003;62859;53.906;27.430;2023-07-30T05:00:52;6.3;5.3;3.7
74426;PMS7003;62859;53.906;27.430;2023-07-30T05:05:12;6;6;4.7
74426;PMS7003;62859;53.906;27.430;2023-07-30T05:10:12;5.7;4.7;3
74426;PMS7003;62859;53.906;27.430;2023-07-30T05:15:42;5.5;5.5;3.8
74426;PMS7003;62859;53.906;27.430;2023-07-30T05:20:52;5.7;5.3;3.3
74426;PMS7003;62859;53.906;27.430;2023-07-30T05:25:14;6.7;6;3.7
74426;PMS7003;62859;53.906;27.430;2023-07-30T05:30:52;7.3;5.3;4
74426;PMS7003;62859;53.906;27.430;2023-07-30T05:35:42;6.3;5.3;3.7
74426;PMS7003;62859;53.906;27.430;2023-07-30T05:40:36;5.7;5;4
74426;PMS7003;62859;53.906;27.430;2023-07-30T05:45:52;6;6;4.3
74426;PMS7003;62859;53.906;27.430;2023-07-30T05:50:28;7;6.5;4.8
74426;PMS7003;62859;53.906;27.430;2023-07-30T05:55:22;5;4.7;3.3
74426;PMS7003;62859;53.906;27.430;2023-07-30T06:00:38;5.7;5.7;4
74426;PMS7003;62859;53.906;27.430;2023-07-30T06:05:50;5.7;5;3.7
74426;PMS7003;62859;53.906;27.430;2023-07-30T06:10:28;4.8;4.3;3.3
74426;PMS7003;62859;53.906;27.430;2023-07-30T06:15:12;6.3;5.3;3.7
74426;PMS7003;62859;53.906;27.430;2023-07-30T06:20:30;6.3;6;4.3
74426;PMS7003;62859;53.906;27.430;2023-07-30T06:25:14;4.3;4.3;3.3
74426;PMS7003;62859;53.906;27.430;2023-07-30T06:30:22;4.8;4.3;3.3
74426;PMS7003;62859;53.906;27.430;2023-07-30T06:35:22;6.7;6.3;4.7
74426;PMS7003;62859;53.906;27.430;2023-07-30T06:40:52;4.3;4.3;3.7
74426;PMS7003;62859;53.906;27.430;2023-07-30T06:45:12;5.7;5.7;4.3
74426;PMS7003;62859;53.906;27.430;2023-07-30T06:50:28;5;4.8;3.8
74426;PMS7003;62859;53.906;27.430;2023-07-30T06:55:54;5.7;5.7;4.3
74426;PMS7003;62859;53.906;27.430;2023-07-30T07:00:40;5.7;4.7;4
74426;PMS7003;62859;53.906;27.430;2023-07-30T07:05:12;6.7;5.7;4.3
74426;PMS7003;62859;53.906;27.430;2023-07-30T07:10:16;6;4.5;3.8
74426;PMS7003;62859;53.906;27.430;2023-07-30T07:15:38;6.3;4.7;3.3
74426;PMS7003;62859;53.906;27.430;2023-07-30T07:20:16;5;4.7;3.7
74426;PMS7003;62859;53.906;27.430;2023-07-30T07:25:44;5.3;4.5;3.5
74426;PMS7003;62859;53.906;27.430;2023-07-30T07:30:52;4.7;4.7;3.7
74426;PMS7003;62859;53.906;27.430;2023-07-30T07:35:38;4.7;4.3;3
74426;PMS7003;62859;53.906;27.430;2023-07-30T07:40:12;4.7;4.7;3.7
74426;PMS7003;62859;53.906;27.430;2023-07-30T07:45:12;5;4.5;3.8
74426;PMS7003;62859;53.906;27.430;2023-07-30T07:50:16;4.7;4;3.3
74426;PMS7003;62859;53.906;27.430;2023-07-30T07:55:20;4;3.7;3
74426;PMS7003;62859;53.906;27.430;2023-07-30T08:00:30;5.3;4.3;3.7
74426;PMS7003;62859;53.906;27.430;2023-07-30T08:05:44;4.8;4.5;3.3
74426;PMS7003;62859;53.906;27.430;2023-07-30T08:10:28;3.7;3.3;3.3
74426;PMS7003;62859;53.906;27.430;2023-07-30T08:15:36;3.7;3.7;3
74426;PMS7003;62859;53.906;27.430;2023-07-30T08:20:24;5.3;5;4
74426;PMS7003;62859;53.906;27.430;2023-07-30T08:25:36;5.8;4.5;4.3
74426;PMS7003;62859;53.906;27.430;2023-07-30T08:30:18;4.7;4;3
74426;PMS7003;62859;53.906;27.430;2023-07-30T08:35:54;3.7;3.7;3
74426;PMS7003;62859;53.906;27.430;2023-07-30T08:40:20;3.3;3.3;2.7
74426;PMS7003;62859;53.906;27.430;2023-07-30T08:45:30;4.3;4.3;3.5
74426;PMS7003;62859;53.906;27.430;2023-07-30T08:50:56;4.7;4;3.3
74426;PMS7003;62859;53.906;27.430;2023-07-30T08:55:44;4;3.3;2.7
74426;PMS7003;62859;53.906;27.430;2023-07-30T09:00:25;3.7;3.3;2.3
74426;PMS7003;62859;53.906;27.430;2023-07-30T09:05:29;4.8;4.3;3
74426;PMS7003;62859;53.906;27.430;2023-07-30T09:10:54;5.3;4.3;3.3
74426;PMS7003;62859;53.906;27.430;2023-07-30T09:15:54;2.7;2.7;2.3
74426;PMS7003;62859;53.906;27.430;2023-07-30T09:20:54;4.8;4;2.8
74426;PMS7003;62859;53.906;27.430;2023-07-30T09:25:55;4.7;3.7;3
74426;PMS7003;62859;53.906;27.430;2023-07-30T09:30:22;5;4.7;2.7
74426;PMS7003;62859;53.906;27.430;2023-07-30T09:35:12;5.3;4.7;2.7
74426;PMS7003;62859;53.906;27.430;2023-07-30T09:40:20;6.5;4.8;3
74426;PMS7003;62859;53.906;27.430;2023-07-30T09:45:54;6.3;4.7;3.7
74426;PMS7003;62859;53.906;27.430;2023-07-30T09:50:42;4.7;4;2.7
74426;PMS7003;62859;53.906;27.430;2023-07-30T09:55:15;4.7;4;3.3
74426;PMS7003;62859;53.906;27.430;2023-07-30T10:00:18;7.3;6;3.8
74426;PMS7003;62859;53.906;27.430;2023-07-30T10:05:14;6;4.7;4
74426;PMS7003;62859;53.906;27.430;2023-07-30T10:10:56;5;5;4
74426;PMS7003;62859;53.906;27.430;2023-07-30T10:15:12;6;5.3;3.7
74426;PMS7003;62859;53.906;27.430;2023-07-30T10:20:20;5.3;5;3
74426;PMS7003;62859;53.906;27.430;2023-07-30T10:25:43;6;4.7;3.7
74426;PMS7003;62859;53.906;27.430;2023-07-30T10:30:55;6.7;5.7;4
74426;PMS7003;62859;53.906;27.430;2023-07-30T10:35:34;5.3;4.7;3.3
74426;PMS7003;62859;53.906;27.430;2023-07-30T10:40:37;5;5;4
74426;PMS7003;62859;53.906;27.430;2023-07-30T10:45:50;6.3;5.3;4
74426;PMS7003;62859;53.906;27.430;2023-07-30T10:50:32;5;5;3.7
74426;PMS7003;62859;53.906;27.430;2023-07-30T10:55:12;7.3;6.8;5
74426;PMS7003;62859;53.906;27.430;2023-07-30T11:00:22;7;6;4.3
74426;PMS7003;62859;53.906;27.430;2023-07-30T11:05:57;5.3;4.3;4
74426;PMS7003;62859;53.906;27.430;2023-07-30T11:10:26;6;5;3.3
74426;PMS7003;62859;53.906;27.430;2023-07-30T11:15:18;4.5;3.5;2.8
74426;PMS7003;62859;53.906;27.430;2023-07-30T11:21:02;5.3;5;3
74426;PMS7003;62859;53.906;27.430;2023-07-30T11:25:45;5.3;4.7;3.3
74426;PMS7003;62859;53.906;27.430;2023-07-30T11:30:12;3.7;3.3;2.7
74426;PMS7003;62859;53.906;27.430;2023-07-30T11:35:28;4;3.8;2.5
74426;PMS7003;62859;53.906;27.430;2023-07-30T11:40:38;4.3;4.3;3.3
74426;PMS7003;62859;53.906;27.430;2023-07-30T11:45:38;4.3;4.3;3.3
74426;PMS7003;62859;53.906;27.430;2023-07-30T11:50:12;5.3;4.7;3.3
74426;PMS7003;62859;53.906;27.430;2023-07-30T11:55:56;6.5;6.3;4
74426;PMS7003;62859;53.906;27.430;2023-07-30T12:00:41;6.3;5.7;4
74426;PMS7003;62859;53.906;27.430;2023-07-30T12:05:31;5;5;4.3
74426;PMS7003;62859;53.906;27.430;2023-07-30T12:10:18;5;5;3.3
74426;PMS7003;62859;53.906;27.430;2023-07-30T12:15:13;4.5;4;2.3
74426;PMS7003;62859;53.906;27.430;2023-07-30T12:20:18;4.7;3;2.7
74426;PMS7003;62859;53.906;27.430;2023-07-30T12:25:18;4;3.3;2.7
74426;PMS7003;62859;53.906;27.430;2023-07-30T12:30:44;5;4.3;3.7
74426;PMS7003;62859;53.906;27.430;2023-07-30T12:35:38;3.8;3.8;3.3
74426;PMS7003;62859;53.906;27.430;2023-07-30T12:40:38;4;3.7;2.7
74426;PMS7003;62859;53.906;27.430;2023-07-30T12:45:23;4;3.3;2.7
74426;PMS7003;62859;53.906;27.430;2023-07-30T12:50:12;4.8;3.8;2.8
74426;PMS7003;62859;53.906;27.430;2023-07-30T12:55:18;3.7;3.3;2
74426;PMS7003;62859;53.906;27.430;2023-07-30T13:00:42;5.7;5;3
74426;PMS7003;62859;53.906;27.430;2023-07-30T13:05:26;4.3;4.3;3.3
74426;PMS7003;62859;53.906;27.430;2023-07-30T13:10:54;4.3;3.5;2.8
74426;PMS7003;62859;53.906;27.430;2023-07-30T13:15:56;3.7;3.3;2
74426;PMS7003;62859;53.906;27.430;2023-07-30T13:20:14;4.3;4;3
74426;PMS7003;62859;53.906;27.430;2023-07-30T13:25:18;4.7;4.3;3.3
74426;PMS7003;62859;53.906;27.430;2023-07-30T13:30:46;3.8;3.5;2.3
74426;PMS7003;62859;53.906;27.430;2023-07-30T13:35:56;3;3;2.7
74426;PMS7003;62859;53.906;27.430;2023-07-30T13:40:42;4.7;4.3;3
74426;PMS7003;62859;53.906;27.430;2023-07-30T13:45:46;4.3;4;2.7
74426;PMS7003;62859;53.906;27.430;2023-07-30T13:50:56;4.5;3.8;3
74426;PMS7003;62859;53.906;27.430;2023-07-30T13:55:12;5;5;3.7
74426;PMS7003;62859;53.906;27.430;2023-07-30T14:00:19;4.5;4.5;3.5
74426;PMS7003;62859;53.906;27.430;2023-07-30T14:05:18;4.7;4.7;3.3
74426;PMS7003;62859;53.906;27.430;2023-07-30T14:10:40;4;4;3.5
74426;PMS7003;62859;53.906;27.430;2023-07-30T14:15:42;6;4;2.5
74426;PMS7003;62859;53.906;27.430;2023-07-30T14:20:14;5.3;4.3;3.3
74426;PMS7003;62859;53.906;27.430;2023-07-30T14:25:30;4.3;3.7;2.7
74426;PMS7003;62859;53.906;27.430;2023-07-30T14:30:12;4;3.5;2
74426;PMS7003;62859;53.906;27.430;2023-07-30T14:35:55;4.3;4;3.7
74426;PMS7003;62859;53.906;27.430;2023-07-30T14:40:44;6.3;5.7;3.3
74426;PMS7003;62859;53.906;27.430;2023-07-30T14:45:27;5.5;5;4
74426;PMS7003;62859;53.906;27.430;2023-07-30T14:50:53;6;4.3;4.3
74426;PMS7003;62859;53.906;27.430;2023-07-30T14:55:53;6.3;5;3.8
74426;PMS7003;62859;53.906;27.430;2023-07-30T15:00:32;5;4.7;4
74426;PMS7003;62859;53.906;27.430;2023-07-30T15:05:13;5.7;5;3.7
74426;PMS7003;62859;53.906;27.430;2023-07-30T15:10:43;6;4.5;3
74426;PMS7003;62859;53.906;27.430;2023-07-30T15:15:19;5.7;5;4.3
74426;PMS7003;62859;53.906;27.430;2023-07-30T15:20:13;5;5;4.3
74426;PMS7003;62859;53.906;27.430;2023-07-30T15:25:23;7;5.5;4
74426;PMS7003;62859;53.906;27.430;2023-07-30T15:30:55;8;6.3;4.3
74426;PMS7003;62859;53.906;27.430;2023-07-30T15:35:19;6.3;5;3.8
74426;PMS7003;62859;53.906;27.430;2023-07-30T15:40:29;4.7;4.7;4
74426;PMS7003;62859;53.906;27.430;2023-07-30T15:45:55;6.3;6;4
74426;PMS7003;62859;53.906;27.430;2023-07-30T15:50:43;6.5;6;3.8
74426;PMS7003;62859;53.906;27.430;2023-07-30T15:55:27;6.7;6.7;5.7
74426;PMS7003;62859;53.906;27.430;2023-07-30T16:00:25;7.7;7.7;6
74426;PMS7003;62859;53.906;27.430;2023-07-30T16:05:45;6.7;5.3;4.3
74426;PMS7003;62859;53.906;27.430;2023-07-30T16:10:39;6;5;3.8
74426;PMS7003;62859;53.906;27.430;2023-07-30T16:15:27;5;5;3.3
74426;PMS7003;62859;53.906;27.430;2023-07-30T16:20:59;5.3;5;4
74426;PMS7003;62859;53.906;27.430;2023-07-30T16:25:35;4.7;4.3;3.7
74426;PMS7003;62859;53.906;27.430;2023-07-30T16:30:27;4.3;3.8;3.3
74426;PMS7003;62859;53.906;27.430;2023-07-30T16:35:31;5.3;4.7;4
74426;PMS7003;62859;53.906;27.430;2023-07-30T16:40:13;5;4.3;3
74426;PMS7003;62859;53.906;27.430;2023-07-30T16:45:13;5.7;5.3;4
74426;PMS7003;62859;53.906;27.430;2023-07-30T16:50:55;12;11.8;8.5
74426;PMS7003;62859;53.906;27.430;2023-07-30T16:55:41;6.3;5;3.3
74426;PMS7003;62859;53.906;27.430;2023-07-30T17:00:41;6;5.3;4
74426;PMS7003;62859;53.906;27.430;2023-07-30T17:05:41;5.3;4.3;3.3
74426;PMS7003;62859;53.906;27.430;2023-07-30T17:10:34;5;4.8;3
74426;PMS7003;62859;53.906;27.430;2023-07-30T17:15:19;6.7;5.3;4
74426;PMS7003;62859;53.906;27.430;2023-07-30T17:20:19;5.3;4.7;3.7
74426;PMS7003;62859;53.906;27.430;2023-07-30T17:25:53;7.7;5.7;4.3
74426;PMS7003;62859;53.906;27.430;2023-07-30T17:30:13;5.8;5.3;4
74426;PMS7003;62859;53.906;27.430;2023-07-30T17:35:39;9;7.3;4.7
74426;PMS7003;62859;53.906;27.430;2023-07-30T17:40:55;7.3;6.7;5.3
74426;PMS7003;62859;53.906;27.430;2023-07-30T17:45:45;5.8;5;4
74426;PMS7003;62859;53.906;27.430;2023-07-30T17:50:31;8;5.7;4.7
74426;PMS7003;62859;53.906;27.430;2023-07-30T17:55:47;6.3;6;4.3
74426;PMS7003;62859;53.906;27.430;2023-07-30T18:00:57;5.7;5.3;4.3
74426;PMS7003;62859;53.906;27.430;2023-07-30T18:05:57;7.3;6;4
74426;PMS7003;62859;53.906;27.430;2023-07-30T18:10:57;6.3;5.7;4.3
74426;PMS7003;62859;53.906;27.430;2023-07-30T18:15:51;7;6.3;5.3
74426;PMS7003;62859;53.906;27.430;2023-07-30T18:20:19;6.3;6;4.7
74426;PMS7003;62859;53.906;27.430;2023-07-30T18:25:33;9;8;6
74426;PMS7003;62859;53.906;27.430;2023-07-30T18:30:47;6.7;6.7;5
74426;PMS7003;62859;53.906;27.430;2023-07-30T18:35:57;9;9;7
74426;PMS7003;62859;53.906;27.430;2023-07-30T18:41:00;6.7;6.3;5
74426;PMS7003;62859;53.906;27.430;2023-07-30T18:45:47;8.3;7.7;5.3
74426;PMS7003;62859;53.906;27.430;2023-07-30T18:50:41;9.3;9;6.3
74426;PMS7003;62859;53.906;27.430;2023-07-30T18:55:17;8.5;7.8;6
74426;PMS7003;62859;53.906;27.430;2023-07-30T19:00:14;9;6.7;5.7
74426;PMS7003;62859;53.906;27.430;2023-07-30T19:05:13;11;9.3;7.3
74426;PMS7003;62859;53.906;27.430;2023-07-30T19:10:57;9.7;8;6
74426;PMS7003;62859;53.906;27.430;2023-07-30T19:15:44;11.8;10.5;8.3
74426;PMS7003;62859;53.906;27.430;2023-07-30T19:20:47;10;8.3;6.7
74426;PMS7003;62859;53.906;27.430;2023-07-30T19:25:51;10.7;8.7;6.7
74426;PMS7003;62859;53.906;27.430;2023-07-30T19:30:13;9.7;7.7;5.7
74426;PMS7003;62859;53.906;27.430;2023-07-30T19:35:57;9.5;9;6.8
74426;PMS7003;62859;53.906;27.430;2023-07-30T19:40:19;10.7;9.7;7.3
74426;PMS7003;62859;53.906;27.430;2023-07-30T19:45:35;10.7;9;6.7
74426;PMS7003;62859;53.906;27.430;2023-07-30T19:50:43;9.7;8.3;7
74426;PMS7003;62859;53.906;27.430;2023-07-30T19:55:57;10.3;9;6.8
74426;PMS7003;62859;53.906;27.430;2023-07-30T20:00:13;12.3;10;7.3
74426;PMS7003;62859;53.906;27.430;2023-07-30T20:05:19;13;11.3;8
74426;PMS7003;62859;53.906;27.430;2023-07-30T20:10:43;13;11.7;7
74426;PMS7003;62859;53.906;27.430;2023-07-30T20:15:13;9;8.8;6.3
74426;PMS7003;62859;53.906;27.430;2023-07-30T20:20:21;12;11.3;8.3
74426;PMS7003;62859;53.906;27.430;2023-07-30T20:25:13;10.3;9;6.7
74426;PMS7003;62859;53.906;27.430;2023-07-30T20:30:57;11;9.5;7.8
74426;PMS7003;62859;53.906;27.430;2023-07-30T20:35:13;11.7;10.3;7
74426;PMS7003;62859;53.906;27.430;2023-07-30T20:40:19;10;9.3;7.3
74426;PMS7003;62859;53.906;27.430;2023-07-30T20:45:57;12;10;7.7
74426;PMS7003;62859;53.906;27.430;2023-07-30T20:50:21;11;10.3;7
74426;PMS7003;62859;53.906;27.430;2023-07-30T20:55:13;11;8;5.7
74426;PMS7003;62859;53.906;27.430;2023-07-30T21:00:41;10;9;6.3
74426;PMS7003;62859;53.906;27.430;2023-07-30T21:05:15;10;8.7;6.7
74426;PMS7003;62859;53.906;27.430;2023-07-30T21:10:13;9.5;8.5;6.5
74426;PMS7003;62859;53.906;27.430;2023-07-30T21:15:27;10;9;6.7
74426;PMS7003;62859;53.906;27.430;2023-07-30T21:20:46;10;8.7;6.3
74426;PMS7003;62859;53.906;27.430;2023-07-30T21:25:29;10;9;6.3
74426;PMS7003;62859;53.906;27.430;2023-07-30T21:30:27;9.3;8.3;6.8
74426;PMS7003;62859;53.906;27.430;2023-07-30T21:35:13;11.3;9.7;7
74426;PMS7003;62859;53.906;27.430;2023-07-30T21:40:13;9;8;5.3
74426;PMS7003;62859;53.906;27.430;2023-07-30T21:45:27;9;8.3;6
74426;PMS7003;62859;53.906;27.430;2023-07-30T21:50:33;9.8;8;6
74426;PMS7003;62859;53.906;27.430;2023-07-30T21:55:47;12.3;9.3;6.7
74426;PMS7003;62859;53.906;27.430;2023-07-30T22:00:27;9.7;9.7;6.3
74426;PMS7003;62859;53.906;27.430;2023-07-30T22:05:41;11.3;9.7;7
74426;PMS7003;62859;53.906;27.430;2023-07-30T22:10:46;9.8;9.3;6.5
74426;PMS7003;62859;53.906;27.430;2023-07-30T22:15:13;10.3;9.3;6.7
74426;PMS7003;62859;53.906;27.430;2023-07-30T22:20:13;7.7;7.3;6
74426;PMS7003;62859;53.906;27.430;2023-07-30T22:25:43;10;7.3;5.3
74426;PMS7003;62859;53.906;27.430;2023-07-30T22:30:43;9;7.3;5.7
74426;PMS7003;62859;53.906;27.430;2023-07-30T22:35:57;10.3;7.3;6.3
74426;PMS7003;62859;53.906;27.430;2023-07-30T22:40:57;7.3;6.3;6
74426;PMS7003;62859;53.906;27.430;2023-07-30T22:45:25;8.3;8;6.3
74426;PMS7003;62859;53.906;27.430;2023-07-30T22:50:27;8.7;7.3;5.7
74426;PMS7003;62859;53.906;27.430;2023-07-30T22:55:21;7.7;7.7;6
74426;PMS7003;62859;53.906;27.430;2023-07-30T23:00:57;7.7;7.3;6
74426;PMS7003;62859;53.906;27.430;2023-07-30T23:05:15;9.3;8.5;6
74426;PMS7003;62859;53.906;27.430;2023-07-30T23:10:47;8;7.7;6
74426;PMS7003;62859;53.906;27.430;2023-07-30T23:15:49;9;7;5.7
74426;PMS7003;62859;53.906;27.430;2023-07-30T23:20:27;7.7;7.7;5
74426;PMS7003;62859;53.906;27.430;2023-07-30T23:25:19;6.3;5.8;5
74426;PMS7003;62859;53.906;27.430;2023-07-30T23:30:43;8;8;5.3
74426;PMS7003;62859;53.906;27.430;2023-07-30T23:35:57;8.7;7.3;5.7
74426;PMS7003;62859;53.906;27.430;2023-07-30T23:40:43;8;6.7;5
74426;PMS7003;62859;53.906;27.430;2023-07-30T23:45:47;6.3;5.5;4
74426;PMS7003;62859;53.906;27.430;2023-07-30T23:50:19;6.3;6;4.3
74426;PMS7003;62859;53.906;27.430;2023-07-30T23:55:19;8.3;6.7;4.7
